sensor_id;sensor_type;location;lat;lon;timestamp;pressure;altitude;pressure_sealevel;temperature;humidity
61337;BME280;47212;41.326;2.104;2023-01-09T00:03:25;100902.34;;;13.67;74.50
61337;BME280;47212;41.326;2.104;2023-01-09T00:08:30;100893.06;;;13.63;74.66
61337;BME280;47212;41.326;2.104;2023-01-09T00:13:37;100884.88;;;13.58;74.67
61337;BME280;47212;41.326;2.104;2023-01-09T00:18:41;100901.28;;;13.53;75.12
61337;BME280;47212;41.326;2.104;2023-01-09T00:23:46;100895.28;;;13.46;74.97
61337;BME280;47212;41.326;2.104;2023-01-09T00:28:55;100905.16;;;13.42;75.40
61337;BME280;47212;41.326;2.104;2023-01-09T00:34:06;100909.78;;;13.41;75.35
61337;BME280;47212;41.326;2.104;2023-01-09T00:39:10;100915.81;;;13.38;75.34
61337;BME280;47212;41.326;2.104;2023-01-09T00:44:26;100928.13;;;13.41;75.98
61337;BME280;47212;41.326;2.104;2023-01-09T00:49:44;100921.81;;;13.45;75.42
61337;BME280;47212;41.326;2.104;2023-01-09T00:54:48;100926.44;;;13.50;75.03
61337;BME280;47212;41.326;2.104;2023-01-09T00:59:58;100928.06;;;13.56;74.79
61337;BME280;47212;41.326;2.104;2023-01-09T01:05:09;100920.13;;;13.64;74.40
61337;BME280;47212;41.326;2.104;2023-01-09T01:10:29;100918.44;;;13.74;74.01
61337;BME280;47212;41.326;2.104;2023-01-09T01:15:31;100932.66;;;13.81;73.23
61337;BME280;47212;41.326;2.104;2023-01-09T01:20:33;100937.28;;;13.85;73.17
61337;BME280;47212;41.326;2.104;2023-01-09T01:25:50;100941.66;;;13.86;73.00
61337;BME280;47212;41.326;2.104;2023-01-09T01:31:00;100932.38;;;13.92;73.43
61337;BME280;47212;41.326;2.104;2023-01-09T01:36:08;100944.38;;;13.96;72.79
61337;BME280;47212;41.326;2.104;2023-01-09T01:41:14;100938.91;;;13.96;72.70
61337;BME280;47212;41.326;2.104;2023-01-09T01:46:33;100947.66;;;13.98;72.18
61337;BME280;47212;41.326;2.104;2023-01-09T01:51:48;100945.19;;;14.02;71.42
61337;BME280;47212;41.326;2.104;2023-01-09T01:56:57;100936.41;;;14.05;70.73
61337;BME280;47212;41.326;2.104;2023-01-09T02:02:11;100937.22;;;14.11;69.83
61337;BME280;47212;41.326;2.104;2023-01-09T02:07:29;100934.16;;;14.17;69.85
61337;BME280;47212;41.326;2.104;2023-01-09T02:12:41;100930.00;;;14.25;69.19
61337;BME280;47212;41.326;2.104;2023-01-09T02:20:53;100947.50;;;14.34;68.63
61337;BME280;47212;41.326;2.104;2023-01-09T02:26:35;100943.63;;;14.40;68.36
61337;BME280;47212;41.326;2.104;2023-01-09T02:43:10;100960.34;;;14.39;68.61
61337;BME280;47212;41.326;2.104;2023-01-09T02:48:17;100956.78;;;14.38;68.74
61337;BME280;47212;41.326;2.104;2023-01-09T02:53:54;100960.38;;;14.28;68.33
61337;BME280;47212;41.326;2.104;2023-01-09T03:06:11;100987.28;;;14.16;68.45
61337;BME280;47212;41.326;2.104;2023-01-09T03:11:07;100991.97;;;14.06;69.00
61337;BME280;47212;41.326;2.104;2023-01-09T03:16:16;100996.38;;;14.01;68.40
61337;BME280;47212;41.326;2.104;2023-01-09T03:21:27;100995.28;;;14.02;68.41
61337;BME280;47212;41.326;2.104;2023-01-09T03:26:37;101011.16;;;14.00;67.79
61337;BME280;47212;41.326;2.104;2023-01-09T03:31:41;101014.72;;;14.01;67.96
61337;BME280;47212;41.326;2.104;2023-01-09T03:36:47;101000.47;;;14.04;67.36
61337;BME280;47212;41.326;2.104;2023-01-09T03:41:49;101019.38;;;14.00;67.62
61337;BME280;47212;41.326;2.104;2023-01-09T03:46:52;101022.66;;;13.92;67.23
61337;BME280;47212;41.326;2.104;2023-01-09T03:52:03;101024.31;;;13.88;67.17
61337;BME280;47212;41.326;2.104;2023-01-09T03:57:11;101026.47;;;13.86;66.89
61337;BME280;47212;41.326;2.104;2023-01-09T04:02:18;101029.78;;;13.83;66.71
61337;BME280;47212;41.326;2.104;2023-01-09T04:07:24;101033.06;;;13.80;66.49
61337;BME280;47212;41.326;2.104;2023-01-09T04:12:35;101028.97;;;13.78;66.23
61337;BME280;47212;41.326;2.104;2023-01-09T04:17:44;101025.13;;;13.79;66.44
61337;BME280;47212;41.326;2.104;2023-01-09T04:22:55;101029.22;;;13.81;66.15
61337;BME280;47212;41.326;2.104;2023-01-09T04:28:31;101027.59;;;13.80;65.92
61337;BME280;47212;41.326;2.104;2023-01-09T04:33:46;101025.41;;;13.77;65.40
61337;BME280;47212;41.326;2.104;2023-01-09T04:39:05;101022.69;;;13.77;65.40
61337;BME280;47212;41.326;2.104;2023-01-09T04:44:11;101014.75;;;13.76;65.59
61337;BME280;47212;41.326;2.104;2023-01-09T04:49:22;101014.47;;;13.82;65.17
61337;BME280;47212;41.326;2.104;2023-01-09T04:54:33;101021.84;;;13.87;64.68
61337;BME280;47212;41.326;2.104;2023-01-09T04:59:35;101021.59;;;13.88;64.22
61337;BME280;47212;41.326;2.104;2023-01-09T05:18:46;101048.50;;;14.51;62.08
61337;BME280;47212;41.326;2.104;2023-01-09T05:23:52;101062.50;;;14.44;61.96
61337;BME280;47212;41.326;2.104;2023-01-09T05:28:54;101064.97;;;14.35;62.44
61337;BME280;47212;41.326;2.104;2023-01-09T05:33:59;101081.97;;;14.27;62.23
61337;BME280;47212;41.326;2.104;2023-01-09T05:39:02;101091.31;;;14.16;61.84
61337;BME280;47212;41.326;2.104;2023-01-09T05:44:04;101106.94;;;14.06;61.80
61337;BME280;47212;41.326;2.104;2023-01-09T05:49:09;101103.41;;;13.90;60.25
61337;BME280;47212;41.326;2.104;2023-01-09T05:54:14;101108.06;;;13.94;55.45
61337;BME280;47212;41.326;2.104;2023-01-09T05:59:17;101096.50;;;14.13;54.18
61337;BME280;47212;41.326;2.104;2023-01-09T06:04:22;101108.53;;;14.27;54.33
61337;BME280;47212;41.326;2.104;2023-01-09T06:09:24;101117.81;;;14.36;53.85
61337;BME280;47212;41.326;2.104;2023-01-09T06:14:28;101140.53;;;14.42;53.88
61337;BME280;47212;41.326;2.104;2023-01-09T06:19:40;101136.97;;;14.41;51.20
61337;BME280;47212;41.326;2.104;2023-01-09T06:24:42;101134.81;;;14.43;52.79
61337;BME280;47212;41.326;2.104;2023-01-09T06:29:44;101155.34;;;14.46;52.35
61337;BME280;47212;41.326;2.104;2023-01-09T06:34:46;101173.41;;;14.47;50.64
61337;BME280;47212;41.326;2.104;2023-01-09T06:39:48;101185.19;;;14.47;51.36
61337;BME280;47212;41.326;2.104;2023-01-09T06:44:50;101200.53;;;14.43;51.97
61337;BME280;47212;41.326;2.104;2023-01-09T06:50:01;101210.09;;;14.35;53.13
61337;BME280;47212;41.326;2.104;2023-01-09T06:55:07;101193.97;;;14.24;54.06
61337;BME280;47212;41.326;2.104;2023-01-09T07:00:10;101216.97;;;14.13;54.74
61337;BME280;47212;41.326;2.104;2023-01-09T07:05:12;101222.72;;;14.01;55.52
61337;BME280;47212;41.326;2.104;2023-01-09T07:10:21;101234.75;;;13.90;55.77
61337;BME280;47212;41.326;2.104;2023-01-09T07:15:40;101254.41;;;13.82;56.05
61337;BME280;47212;41.326;2.104;2023-01-09T07:20:41;101282.88;;;13.76;56.25
61337;BME280;47212;41.326;2.104;2023-01-09T07:25:44;101276.84;;;13.68;56.37
61337;BME280;47212;41.326;2.104;2023-01-09T07:30:49;101282.56;;;13.62;56.08
61337;BME280;47212;41.326;2.104;2023-01-09T07:35:51;101282.28;;;13.58;56.87
61337;BME280;47212;41.326;2.104;2023-01-09T07:40:52;101286.63;;;13.54;56.95
61337;BME280;47212;41.326;2.104;2023-01-09T07:45:54;101292.38;;;13.53;56.97
61337;BME280;47212;41.326;2.104;2023-01-09T07:50:56;101302.22;;;13.54;56.97
61337;BME280;47212;41.326;2.104;2023-01-09T07:55:58;101332.31;;;13.54;56.53
61337;BME280;47212;41.326;2.104;2023-01-09T08:01:00;101337.50;;;13.55;57.86
61337;BME280;47212;41.326;2.104;2023-01-09T08:06:02;101349.28;;;13.56;56.40
61337;BME280;47212;41.326;2.104;2023-01-09T08:11:04;101354.78;;;13.61;56.60
61337;BME280;47212;41.326;2.104;2023-01-09T08:16:06;101370.09;;;14.50;54.93
61337;BME280;47212;41.326;2.104;2023-01-09T08:21:09;101375.28;;;20.09;44.07
61337;BME280;47212;41.326;2.104;2023-01-09T08:26:15;101389.06;;;24.26;37.46
61337;BME280;47212;41.326;2.104;2023-01-09T08:31:25;101392.28;;;26.74;33.45
61337;BME280;47212;41.326;2.104;2023-01-09T08:36:27;101409.41;;;28.26;28.01
61337;BME280;47212;41.326;2.104;2023-01-09T08:41:29;101432.56;;;28.81;30.57
61337;BME280;47212;41.326;2.104;2023-01-09T08:46:50;101437.19;;;28.54;30.14
61337;BME280;47212;41.326;2.104;2023-01-09T08:52:07;101438.81;;;28.20;30.19
61337;BME280;47212;41.326;2.104;2023-01-09T08:57:09;101456.03;;;27.87;31.24
61337;BME280;47212;41.326;2.104;2023-01-09T09:02:11;101458.94;;;27.75;31.20
61337;BME280;47212;41.326;2.104;2023-01-09T09:07:22;101462.56;;;27.47;31.39
61337;BME280;47212;41.326;2.104;2023-01-09T09:12:31;101475.31;;;26.89;31.18
61337;BME280;47212;41.326;2.104;2023-01-09T09:17:33;101479.41;;;26.15;31.72
61337;BME280;47212;41.326;2.104;2023-01-09T09:22:35;101516.28;;;25.63;32.86
61337;BME280;47212;41.326;2.104;2023-01-09T09:27:37;101514.34;;;25.09;32.63
61337;BME280;47212;41.326;2.104;2023-01-09T09:32:39;101529.53;;;24.29;32.46
61337;BME280;47212;41.326;2.104;2023-01-09T09:37:55;101541.34;;;23.53;31.28
61337;BME280;47212;41.326;2.104;2023-01-09T09:43:09;101558.88;;;23.02;32.90
61337;BME280;47212;41.326;2.104;2023-01-09T09:48:37;101553.16;;;22.81;34.79
61337;BME280;47212;41.326;2.104;2023-01-09T09:54:03;101560.63;;;22.72;31.63
61337;BME280;47212;41.326;2.104;2023-01-09T09:59:17;101565.00;;;22.64;32.25
61337;BME280;47212;41.326;2.104;2023-01-09T10:04:31;101574.56;;;22.49;33.20
61337;BME280;47212;41.326;2.104;2023-01-09T10:09:53;101565.13;;;22.50;31.15
61337;BME280;47212;41.326;2.104;2023-01-09T10:14:58;101568.03;;;22.37;34.15
61337;BME280;47212;41.326;2.104;2023-01-09T10:25:30;101564.38;;;22.19;33.27
61337;BME280;47212;41.326;2.104;2023-01-09T10:36:29;101558.66;;;22.15;30.59
61337;BME280;47212;41.326;2.104;2023-01-09T10:41:59;101562.69;;;22.09;30.53
61337;BME280;47212;41.326;2.104;2023-01-09T10:47:21;101547.63;;;22.02;30.84
61337;BME280;47212;41.326;2.104;2023-01-09T10:52:39;101575.19;;;21.98;30.02
61337;BME280;47212;41.326;2.104;2023-01-09T10:57:53;101565.09;;;22.02;32.24
61337;BME280;47212;41.326;2.104;2023-01-09T11:02:57;101556.72;;;22.24;32.79
61337;BME280;47212;41.326;2.104;2023-01-09T11:08:21;101553.19;;;22.41;29.47
61337;BME280;47212;41.326;2.104;2023-01-09T11:13:26;101554.91;;;22.68;31.52
61337;BME280;47212;41.326;2.104;2023-01-09T11:18:30;101553.97;;;22.81;30.75
61337;BME280;47212;41.326;2.104;2023-01-09T11:23:33;101566.97;;;22.72;29.59
61337;BME280;47212;41.326;2.104;2023-01-09T11:28:36;101577.75;;;22.65;29.96
61337;BME280;47212;41.326;2.104;2023-01-09T11:33:46;101566.31;;;22.58;27.63
61337;BME280;47212;41.326;2.104;2023-01-09T11:38:59;101564.94;;;22.47;27.93
61337;BME280;47212;41.326;2.104;2023-01-09T11:44:03;101552.50;;;22.27;30.34
61337;BME280;47212;41.326;2.104;2023-01-09T11:59:25;101561.28;;;22.20;28.75
61337;BME280;47212;41.326;2.104;2023-01-09T12:04:34;101566.63;;;22.08;29.45
61337;BME280;47212;41.326;2.104;2023-01-09T12:36:16;101548.94;;;21.42;28.69
61337;BME280;47212;41.326;2.104;2023-01-09T12:41:40;101534.00;;;21.52;28.90
61337;BME280;47212;41.326;2.104;2023-01-09T12:47:02;101522.22;;;21.69;29.73
61337;BME280;47212;41.326;2.104;2023-01-09T12:52:20;101520.81;;;21.80;31.13
61337;BME280;47212;41.326;2.104;2023-01-09T12:57:33;101512.50;;;21.80;28.84
61337;BME280;47212;41.326;2.104;2023-01-09T13:03:12;101507.94;;;21.53;29.03
61337;BME280;47212;41.326;2.104;2023-01-09T13:08:34;101512.19;;;21.28;28.76
61337;BME280;47212;41.326;2.104;2023-01-09T13:14:05;101497.06;;;21.12;29.39
61337;BME280;47212;41.326;2.104;2023-01-09T13:19:14;101507.88;;;21.22;29.61
61337;BME280;47212;41.326;2.104;2023-01-09T13:24:26;101496.31;;;21.20;31.24
61337;BME280;47212;41.326;2.104;2023-01-09T13:29:43;101511.78;;;21.21;30.36
61337;BME280;47212;41.326;2.104;2023-01-09T13:36:35;101493.66;;;21.15;30.58
61337;BME280;47212;41.326;2.104;2023-01-09T13:45:23;101514.81;;;21.11;30.96
61337;BME280;47212;41.326;2.104;2023-01-09T13:50:32;101522.16;;;21.15;31.64
61337;BME280;47212;41.326;2.104;2023-01-09T13:55:34;101522.47;;;21.14;31.96
61337;BME280;47212;41.326;2.104;2023-01-09T14:06:03;101530.41;;;20.71;31.20
61337;BME280;47212;41.326;2.104;2023-01-09T14:11:07;101538.72;;;20.57;32.69
61337;BME280;47212;41.326;2.104;2023-01-09T14:21:16;101544.88;;;20.13;33.14
61337;BME280;47212;41.326;2.104;2023-01-09T14:26:23;101541.50;;;20.02;33.30
61337;BME280;47212;41.326;2.104;2023-01-09T14:31:31;101552.31;;;19.85;33.12
61337;BME280;47212;41.326;2.104;2023-01-09T14:36:34;101524.97;;;19.69;33.77
61337;BME280;47212;41.326;2.104;2023-01-09T14:41:45;101530.97;;;19.58;33.67
61337;BME280;47212;41.326;2.104;2023-01-09T14:52:49;101512.78;;;19.05;33.68
61337;BME280;47212;41.326;2.104;2023-01-09T15:03:25;101515.72;;;18.76;34.63
61337;BME280;47212;41.326;2.104;2023-01-09T15:08:29;101545.31;;;18.71;34.69
61337;BME280;47212;41.326;2.104;2023-01-09T15:13:40;101558.88;;;18.67;34.47
61337;BME280;47212;41.326;2.104;2023-01-09T15:18:45;101574.75;;;18.52;34.63
61337;BME280;47212;41.326;2.104;2023-01-09T15:23:49;101589.78;;;18.40;35.28
61337;BME280;47212;41.326;2.104;2023-01-09T15:29:14;101600.69;;;18.27;35.01
61337;BME280;47212;41.326;2.104;2023-01-09T15:34:30;101615.44;;;18.12;35.66
61337;BME280;47212;41.326;2.104;2023-01-09T15:39:46;101635.47;;;17.94;35.33
61337;BME280;47212;41.326;2.104;2023-01-09T15:44:57;101669.75;;;17.77;35.99
61337;BME280;47212;41.326;2.104;2023-01-09T15:50:02;101667.09;;;17.62;35.76
61337;BME280;47212;41.326;2.104;2023-01-09T15:55:30;101674.91;;;17.50;35.53
61337;BME280;47212;41.326;2.104;2023-01-09T16:00:43;101687.13;;;17.29;36.29
61337;BME280;47212;41.326;2.104;2023-01-09T16:05:59;101672.84;;;17.22;36.62
61337;BME280;47212;41.326;2.104;2023-01-09T16:11:37;101688.91;;;17.04;36.43
61337;BME280;47212;41.326;2.104;2023-01-09T16:16:45;101703.25;;;16.91;36.89
61337;BME280;47212;41.326;2.104;2023-01-09T16:21:56;101718.72;;;16.72;37.07
61337;BME280;47212;41.326;2.104;2023-01-09T16:27:22;101721.50;;;16.56;37.59
61337;BME280;47212;41.326;2.104;2023-01-09T16:32:43;101731.94;;;16.39;37.83
61337;BME280;47212;41.326;2.104;2023-01-09T16:37:51;101752.28;;;16.28;38.33
61337;BME280;47212;41.326;2.104;2023-01-09T16:42:57;101769.31;;;16.20;38.57
61337;BME280;47212;41.326;2.104;2023-01-09T16:48:12;101786.91;;;16.14;38.68
61337;BME280;47212;41.326;2.104;2023-01-09T16:53:23;101788.81;;;16.08;38.71
61337;BME280;47212;41.326;2.104;2023-01-09T16:58:32;101796.22;;;16.03;38.85
61337;BME280;47212;41.326;2.104;2023-01-09T17:03:59;101823.41;;;15.94;39.11
61337;BME280;47212;41.326;2.104;2023-01-09T17:09:05;101843.44;;;15.89;39.41
61337;BME280;47212;41.326;2.104;2023-01-09T17:14:11;101861.81;;;15.84;39.38
61337;BME280;47212;41.326;2.104;2023-01-09T17:19:36;101859.34;;;15.82;38.89
61337;BME280;47212;41.326;2.104;2023-01-09T17:24:56;101873.06;;;15.77;39.69
61337;BME280;47212;41.326;2.104;2023-01-09T17:30:24;101887.06;;;15.76;39.76
61337;BME280;47212;41.326;2.104;2023-01-09T17:35:32;101904.06;;;15.73;39.83
61337;BME280;47212;41.326;2.104;2023-01-09T17:40:41;101900.22;;;15.69;39.74
61337;BME280;47212;41.326;2.104;2023-01-09T17:45:46;101916.38;;;15.65;40.51
61337;BME280;47212;41.326;2.104;2023-01-09T17:50:53;101929.50;;;15.58;40.42
61337;BME280;47212;41.326;2.104;2023-01-09T17:55:57;101936.03;;;15.52;40.84
61337;BME280;47212;41.326;2.104;2023-01-09T18:01:02;101934.63;;;15.49;40.72
61337;BME280;47212;41.326;2.104;2023-01-09T18:06:11;101946.41;;;15.45;40.69
61337;BME280;47212;41.326;2.104;2023-01-09T18:11:20;101963.94;;;15.39;40.54
61337;BME280;47212;41.326;2.104;2023-01-09T18:16:26;101972.69;;;15.36;41.15
61337;BME280;47212;41.326;2.104;2023-01-09T18:21:30;101958.69;;;15.32;41.31
61337;BME280;47212;41.326;2.104;2023-01-09T18:26:33;101950.16;;;15.28;41.25
61337;BME280;47212;41.326;2.104;2023-01-09T18:31:41;101956.44;;;15.24;41.42
61337;BME280;47212;41.326;2.104;2023-01-09T18:36:54;101964.63;;;15.19;41.33
61337;BME280;47212;41.326;2.104;2023-01-09T18:41:58;101961.84;;;15.14;41.81
61337;BME280;47212;41.326;2.104;2023-01-09T18:47:02;101961.28;;;15.12;41.66
61337;BME280;47212;41.326;2.104;2023-01-09T18:52:10;101964.03;;;15.12;41.49
61337;BME280;47212;41.326;2.104;2023-01-09T18:57:15;101991.16;;;15.08;41.74
61337;BME280;47212;41.326;2.104;2023-01-09T19:02:22;102009.47;;;15.03;41.89
61337;BME280;47212;41.326;2.104;2023-01-09T19:07:28;102031.09;;;14.99;41.82
61337;BME280;47212;41.326;2.104;2023-01-09T19:12:33;102029.16;;;14.94;41.90
61337;BME280;47212;41.326;2.104;2023-01-09T19:17:46;102029.97;;;14.95;42.07
61337;BME280;47212;41.326;2.104;2023-01-09T19:22:54;102032.16;;;14.93;41.79
61337;BME280;47212;41.326;2.104;2023-01-09T19:27:58;102047.78;;;14.44;42.52
61337;BME280;47212;41.326;2.104;2023-01-09T19:33:04;102062.03;;;14.24;42.60
61337;BME280;47212;41.326;2.104;2023-01-09T19:38:13;102059.09;;;14.09;43.31
61337;BME280;47212;41.326;2.104;2023-01-09T19:43:27;102083.00;;;13.96;43.44
61337;BME280;47212;41.326;2.104;2023-01-09T19:48:29;102094.03;;;14.01;43.26
61337;BME280;47212;41.326;2.104;2023-01-09T19:53:33;102086.53;;;14.14;43.77
61337;BME280;47212;41.326;2.104;2023-01-09T19:58:36;102084.50;;;14.26;43.59
61337;BME280;47212;41.326;2.104;2023-01-09T20:03:40;102087.31;;;14.31;43.46
61337;BME280;47212;41.326;2.104;2023-01-09T20:08:43;102092.84;;;14.36;43.48
61337;BME280;47212;41.326;2.104;2023-01-09T20:13:49;102092.34;;;14.39;43.20
61337;BME280;47212;41.326;2.104;2023-01-09T20:18:52;102069.84;;;14.37;42.84
61337;BME280;47212;41.326;2.104;2023-01-09T20:23:59;102066.53;;;14.35;43.45
61337;BME280;47212;41.326;2.104;2023-01-09T20:29:02;102076.09;;;14.32;43.24
61337;BME280;47212;41.326;2.104;2023-01-09T20:34:04;102063.16;;;14.28;43.12
61337;BME280;47212;41.326;2.104;2023-01-09T20:39:07;102066.16;;;14.26;43.16
61337;BME280;47212;41.326;2.104;2023-01-09T20:44:13;102078.47;;;14.24;43.12
61337;BME280;47212;41.326;2.104;2023-01-09T20:49:19;102082.78;;;14.20;43.27
61337;BME280;47212;41.326;2.104;2023-01-09T20:54:21;102094.81;;;14.19;43.50
61337;BME280;47212;41.326;2.104;2023-01-09T20:59:23;102093.94;;;14.13;43.18
61337;BME280;47212;41.326;2.104;2023-01-09T21:04:26;102119.31;;;14.09;43.51
61337;BME280;47212;41.326;2.104;2023-01-09T21:09:28;102114.88;;;14.02;43.74
61337;BME280;47212;41.326;2.104;2023-01-09T21:14:29;102126.81;;;13.96;43.66
61337;BME280;47212;41.326;2.104;2023-01-09T21:19:32;102151.00;;;13.37;44.56
61337;BME280;47212;41.326;2.104;2023-01-09T21:24:34;102141.94;;;13.20;44.68
61337;BME280;47212;41.326;2.104;2023-01-09T21:29:36;102151.25;;;13.07;44.33
61337;BME280;47212;41.326;2.104;2023-01-09T21:34:38;102140.72;;;12.88;45.49
61337;BME280;47212;41.326;2.104;2023-01-09T21:39:40;102136.25;;;12.82;46.36
61337;BME280;47212;41.326;2.104;2023-01-09T21:44:42;102140.28;;;12.79;45.45
61337;BME280;47212;41.326;2.104;2023-01-09T21:50:03;102132.59;;;12.76;46.46
61337;BME280;47212;41.326;2.104;2023-01-09T21:55:06;102132.13;;;12.67;45.55
61337;BME280;47212;41.326;2.104;2023-01-09T22:00:09;102133.22;;;12.66;46.06
61337;BME280;47212;41.326;2.104;2023-01-09T22:05:13;102159.06;;;12.75;45.92
61337;BME280;47212;41.326;2.104;2023-01-09T22:10:16;102165.09;;;12.89;45.37
61337;BME280;47212;41.326;2.104;2023-01-09T22:15:18;102160.66;;;13.00;45.52
61337;BME280;47212;41.326;2.104;2023-01-09T22:20:20;102181.09;;;13.09;45.70
61337;BME280;47212;41.326;2.104;2023-01-09T22:25:21;102199.88;;;13.17;45.55
61337;BME280;47212;41.326;2.104;2023-01-09T22:30:23;102194.97;;;13.19;45.69
61337;BME280;47212;41.326;2.104;2023-01-09T22:35:25;102202.69;;;13.22;45.77
61337;BME280;47212;41.326;2.104;2023-01-09T22:40:27;102200.53;;;13.24;45.41
61337;BME280;47212;41.326;2.104;2023-01-09T22:45:29;102195.66;;;13.26;45.52
61337;BME280;47212;41.326;2.104;2023-01-09T22:50:33;102213.63;;;13.22;45.56
61337;BME280;47212;41.326;2.104;2023-01-09T22:56:02;102206.50;;;13.21;45.57
61337;BME280;47212;41.326;2.104;2023-01-09T23:01:09;102194.41;;;13.17;45.72
61337;BME280;47212;41.326;2.104;2023-01-09T23:06:18;102200.81;;;13.11;45.61
61337;BME280;47212;41.326;2.104;2023-01-09T23:11:35;102219.34;;;13.09;45.26
61337;BME280;47212;41.326;2.104;2023-01-09T23:16:59;102237.91;;;13.07;45.82
61337;BME280;47212;41.326;2.104;2023-01-09T23:22:04;102248.84;;;13.07;45.76
61337;BME280;47212;41.326;2.104;2023-01-09T23:27:08;102247.19;;;13.06;46.06
61337;BME280;47212;41.326;2.104;2023-01-09T23:32:16;102258.34;;;13.04;45.62
61337;BME280;47212;41.326;2.104;2023-01-09T23:37:22;102258.00;;;13.01;45.67
61337;BME280;47212;41.326;2.104;2023-01-09T23:42:25;102224.47;;;12.94;46.26
61337;BME280;47212;41.326;2.104;2023-01-09T23:47:55;102213.44;;;12.89;46.23
61337;BME280;47212;41.326;2.104;2023-01-09T23:53:01;102221.88;;;12.87;46.12
61337;BME280;47212;41.326;2.104;2023-01-09T23:58:08;102234.97;;;12.85;45.85
